Time;durP1;ratioP1;P1;durP2;ratioP2;P2;SDS_P1;SDS_P2;PMS_P1;PMS_P2;Temp;Humidity;BMP_temperature;BMP_pressure;BME280_temperature;BME280_humidity;BME280_pressure;Samples;Min_cycle;Max_cycle;Signal;HPM_P1;HPM_P2
2022/04/19 00:00:39;;;;;;;;;;;;;;;10.58;100.00;99062.19;5034581;28;20276;-76
2022/04/19 00:03:06;;;;;;;;;;;;;;;10.56;100.00;99058.22;5034521;28;20024;-76
2022/04/19 00:05:33;;;;;;;;;;;;;;;10.39;100.00;99065.66;5034405;28;19925;-76
2022/04/19 00:08:02;;;;;;;;;;;;;;;10.33;100.00;99061.75;5049424;28;19925;-76
2022/04/19 00:10:29;;;;;;;;;;;;;;;10.39;100.00;99059.31;5034343;28;19929;-76
2022/04/19 00:12:56;;;;;;;;;;;;;;;10.42;100.00;99059.22;5066429;28;20432;-76
2022/04/19 00:15:28;;;;;;;;;;;;;;;10.30;100.00;99059.81;5034263;28;19925;-76
2022/04/19 00:17:56;;;;;;;;;;;;;;;10.05;100.00;99055.78;5034187;28;20007;-76
2022/04/19 00:20:24;;;;;;;;;;;;;;;10.06;100.00;99052.56;5034206;28;19963;-76
2022/04/19 00:22:52;;;;;;;;;;;;;;;9.54;100.00;99054.06;5049219;28;19925;-76
2022/04/19 00:25:20;;;;;;;;;;;;;;;9.43;100.00;99058.16;5034140;28;20080;-76
2022/04/19 00:27:47;;;;;;;;;;;;;;;9.71;100.00;99052.25;5033891;28;19925;-76
2022/04/19 00:30:15;;;;;;;;;;;;;;;9.74;100.00;99052.19;5032786;28;19932;-77
2022/04/19 00:32:42;;;;;;;;;;;;;;;9.79;100.00;99046.16;5068889;28;20387;-76
2022/04/19 00:35:10;;;;;;;;;;;;;;;9.68;100.00;99048.28;5019863;28;20380;-75
2022/04/19 00:37:38;;;;;;;;;;;;;;;9.41;100.00;99055.78;5053560;28;20280;-76
2022/04/19 00:40:06;;;;;;;;;;;;;;;9.49;100.00;99048.94;5053618;28;20288;-76
2022/04/19 00:42:34;;;;;;;;;;;;;;;9.48;100.00;99052.16;5035907;28;19925;-76
2022/04/19 00:45:06;;;;;;;;;;;;;;;9.53;100.00;99044.09;5052431;28;19970;-76
2022/04/19 00:47:34;;;;;;;;;;;;;;;9.24;100.00;99051.19;5053772;28;19925;-76
2022/04/19 00:50:06;;;;;;;;;;;;;;;8.77;100.00;99054.84;5053731;28;19931;-76
2022/04/19 00:52:37;;;;;;;;;;;;;;;8.83;100.00;99059.56;5052353;28;19925;-76
2022/04/19 00:55:07;;;;;;;;;;;;;;;8.88;100.00;99058.34;5035857;28;19931;-76
2022/04/19 00:57:38;;;;;;;;;;;;;;;8.79;100.00;99050.47;5052303;28;19928;-76
2022/04/19 01:00:08;;;;;;;;;;;;;;;8.32;100.00;99064.38;5035831;28;19925;-75
2022/04/19 01:02:39;;;;;;;;;;;;;;;8.98;100.00;99049.88;5052496;28;19952;-76
2022/04/19 01:05:09;;;;;;;;;;;;;;;8.94;100.00;99054.69;5052322;28;20011;-75
2022/04/19 01:07:37;;;;;;;;;;;;;;;9.04;100.00;99053.78;5051981;28;19932;-76
2022/04/19 01:10:07;;;;;;;;;;;;;;;9.24;100.00;99047.63;5035699;28;19929;-76
2022/04/19 01:15:21;;;;;;;;;;;;;;;9.44;100.00;99048.59;5035688;28;19971;-76
2022/04/19 01:18:09;;;;;;;;;;;;;;;9.41;100.00;99055.00;5052293;28;19933;-76
2022/04/19 01:20:38;;;;;;;;;;;;;;;9.30;100.00;99051.56;5035216;28;19971;-76
2022/04/19 01:23:08;;;;;;;;;;;;;;;9.24;100.00;99056.00;5052150;28;19935;-75
2022/04/19 01:25:36;;;;;;;;;;;;;;;9.22;100.00;99055.63;5052187;28;20023;-76
2022/04/19 01:28:04;;;;;;;;;;;;;;;9.14;100.00;99057.69;5052073;28;20338;-76
2022/04/19 01:30:31;;;;;;;;;;;;;;;8.71;100.00;99051.72;5035520;28;19924;-76
2022/04/19 01:32:59;;;;;;;;;;;;;;;8.76;100.00;99048.50;5003004;28;19925;-76
2022/04/19 01:35:27;;;;;;;;;;;;;;;8.72;100.00;99050.50;5051898;28;19924;-76
2022/04/19 01:37:57;;;;;;;;;;;;;;;8.79;100.00;99052.44;5052149;28;19982;-76
2022/04/19 01:40:35;;;;;;;;;;;;;;;8.80;100.00;99043.69;5052087;28;19932;-75
2022/04/19 01:43:04;;;;;;;;;;;;;;;8.77;100.00;99050.09;5051981;28;19925;-76
2022/04/19 01:45:46;;;;;;;;;;;;;;;8.50;100.00;99054.69;5051902;28;19925;-76
2022/04/19 01:48:19;;;;;;;;;;;;;;;8.40;100.00;99050.00;5051830;28;19929;-76
2022/04/19 01:50:46;;;;;;;;;;;;;;;8.45;100.00;99049.56;5052349;28;19967;-76
2022/04/19 01:53:14;;;;;;;;;;;;;;;8.24;100.00;99043.38;5055543;28;19924;-76
2022/04/19 01:55:44;;;;;;;;;;;;;;;8.34;100.00;99043.28;5038697;28;19925;-76
2022/04/19 01:58:31;;;;;;;;;;;;;;;8.32;100.00;99051.25;5055404;28;19925;-76
2022/04/19 02:00:59;;;;;;;;;;;;;;;8.11;100.00;99051.38;5039041;28;20015;-75
2022/04/19 02:03:27;;;;;;;;;;;;;;;8.14;100.00;99049.75;5022420;28;19925;-75
2022/04/19 02:05:55;;;;;;;;;;;;;;;8.12;100.00;99050.16;5055080;28;19925;-76
2022/04/19 02:08:23;;;;;;;;;;;;;;;8.14;100.00;99050.56;5038627;28;19951;-75
2022/04/19 02:10:50;;;;;;;;;;;;;;;7.95;100.00;99050.28;5055103;28;19932;-75
2022/04/19 02:13:20;;;;;;;;;;;;;;;8.04;100.00;99048.59;5038755;28;19929;-75
2022/04/19 02:16:08;;;;;;;;;;;;;;;7.97;100.00;99051.44;5056275;28;19932;-75
2022/04/19 02:18:37;;;;;;;;;;;;;;;7.77;100.00;99046.81;5054704;28;19999;-76
2022/04/19 02:21:04;;;;;;;;;;;;;;;7.86;100.00;99050.72;5054973;28;19925;-75
2022/04/19 02:23:31;;;;;;;;;;;;;;;7.39;100.00;99045.78;5054936;28;19978;-75
2022/04/19 02:25:58;;;;;;;;;;;;;;;7.61;100.00;99038.94;5054953;28;19925;-75
2022/04/19 02:28:27;;;;;;;;;;;;;;;7.69;100.00;99046.06;5054884;28;19924;-75
2022/04/19 02:31:05;;;;;;;;;;;;;;;7.67;100.00;99042.88;5054563;28;19924;-76
2022/04/19 02:33:34;;;;;;;;;;;;;;;7.60;100.00;99045.69;5054462;28;19929;-75
2022/04/19 02:36:03;;;;;;;;;;;;;;;7.66;100.00;99046.88;5054641;28;19925;-75
2022/04/19 02:38:31;;;;;;;;;;;;;;;7.64;100.00;99048.44;5054624;28;19925;-75
2022/04/19 02:41:00;;;;;;;;;;;;;;;7.32;100.00;99045.78;5055708;28;19929;-75
2022/04/19 02:43:29;;;;;;;;;;;;;;;6.76;100.00;99045.91;5037912;28;19929;-75
2022/04/19 02:45:58;;;;;;;;;;;;;;;7.02;100.00;99051.84;5054337;28;19935;-75
2022/04/19 02:48:33;;;;;;;;;;;;;;;6.89;100.00;99053.44;5054316;28;19924;-75
2022/04/19 02:51:02;;;;;;;;;;;;;;;6.97;100.00;99054.22;5054485;28;20012;-75
2022/04/19 02:53:29;;;;;;;;;;;;;;;6.91;100.00;99064.16;5055646;28;20018;-75
2022/04/19 02:55:57;;;;;;;;;;;;;;;6.86;100.00;99059.78;5054310;28;19925;-75
2022/04/19 02:58:25;;;;;;;;;;;;;;;6.75;100.00;99058.22;5054229;28;20022;-75
2022/04/19 03:00:55;;;;;;;;;;;;;;;6.90;100.00;99060.59;5054319;28;19931;-75
2022/04/19 03:03:22;;;;;;;;;;;;;;;6.15;100.00;99068.53;5055248;28;19924;-74
2022/04/19 03:05:52;;;;;;;;;;;;;;;6.45;100.00;99068.94;5054147;28;20323;-75
2022/04/19 03:08:20;;;;;;;;;;;;;;;6.72;100.00;99059.03;5054088;28;19932;-75
2022/04/19 03:10:49;;;;;;;;;;;;;;;6.89;100.00;99063.78;5037269;28;19924;-75
2022/04/19 03:13:17;;;;;;;;;;;;;;;6.65;100.00;99065.38;5054061;28;20336;-75
2022/04/19 03:15:44;;;;;;;;;;;;;;;6.75;100.00;99061.00;5037236;28;19925;-75
2022/04/19 03:18:12;;;;;;;;;;;;;;;5.83;100.00;99062.88;5053754;28;19929;-75
2022/04/19 03:20:39;;;;;;;;;;;;;;;6.43;100.00;99068.53;5053888;28;20164;-75
2022/04/19 03:28:48;;;;;;;;;;;;;;;6.44;100.00;99072.91;5053738;28;19932;-75
2022/04/19 03:31:16;;;;;;;;;;;;;;;6.62;100.00;99073.72;5053307;28;19970;-75
2022/04/19 03:33:48;;;;;;;;;;;;;;;6.52;100.00;99082.81;5053548;28;19991;-74
2022/04/19 03:36:19;;;;;;;;;;;;;;;6.64;100.00;99074.91;5037089;28;19932;-75
2022/04/19 03:38:48;;;;;;;;;;;;;;;6.65;100.00;99078.47;5037466;28;19971;-75
2022/04/19 03:41:15;;;;;;;;;;;;;;;6.63;100.00;99078.06;5053473;28;19932;-75
2022/04/19 03:43:46;;;;;;;;;;;;;;;6.69;100.00;99077.28;5053127;28;19924;-75
2022/04/19 03:46:13;;;;;;;;;;;;;;;6.42;100.00;99078.06;5053192;28;19982;-75
2022/04/19 03:48:40;;;;;;;;;;;;;;;6.49;100.00;99078.06;5086665;28;19932;-75
2022/04/19 03:51:07;;;;;;;;;;;;;;;6.40;100.00;99077.66;5053289;28;19932;-75
2022/04/19 03:53:36;;;;;;;;;;;;;;;5.91;100.00;99083.13;5053189;28;19974;-75
2022/04/19 03:56:06;;;;;;;;;;;;;;;6.30;100.00;99086.78;5053243;28;19924;-75
2022/04/19 03:58:33;;;;;;;;;;;;;;;6.33;100.00;99086.00;5053053;28;19925;-75
2022/04/19 04:01:01;;;;;;;;;;;;;;;6.40;100.00;99080.44;5053159;28;19924;-74
2022/04/19 04:03:29;;;;;;;;;;;;;;;6.16;100.00;99083.97;5053072;28;19929;-74
2022/04/19 04:05:56;;;;;;;;;;;;;;;6.25;100.00;99087.16;5036429;28;19968;-75
2022/04/19 04:08:25;;;;;;;;;;;;;;;6.28;100.00;99087.16;5052889;28;19924;-74
2022/04/19 04:10:56;;;;;;;;;;;;;;;6.34;100.00;99088.38;5053016;28;20074;-75
2022/04/19 04:13:30;;;;;;;;;;;;;;;6.27;100.00;99087.56;5070070;28;19929;-75
2022/04/19 04:15:58;;;;;;;;;;;;;;;6.30;100.00;99098.66;5052684;28;19925;-75
2022/04/19 04:18:26;;;;;;;;;;;;;;;6.03;100.00;99094.63;5052880;28;19925;-75
2022/04/19 04:20:53;;;;;;;;;;;;;;;5.93;100.00;99094.59;5052829;28;20379;-75
2022/04/19 04:23:20;;;;;;;;;;;;;;;6.03;100.00;99100.19;5052788;28;19929;-75
2022/04/19 04:25:47;;;;;;;;;;;;;;;5.99;100.00;99098.59;5052739;28;19952;-75
2022/04/19 04:28:17;;;;;;;;;;;;;;;5.68;100.00;99093.72;5036171;28;20328;-75
2022/04/19 04:30:48;;;;;;;;;;;;;;;5.79;100.00;99097.31;5082151;28;19932;-75
2022/04/19 04:33:15;;;;;;;;;;;;;;;5.80;100.00;99096.91;5049368;28;20324;-75
2022/04/19 04:35:42;;;;;;;;;;;;;;;5.85;100.00;99104.09;5033942;28;20381;-75
2022/04/19 04:38:10;;;;;;;;;;;;;;;5.68;100.00;99091.72;5034403;28;19991;-75
2022/04/19 04:40:38;;;;;;;;;;;;;;;5.86;100.00;99095.38;5039730;28;19976;-75
2022/04/19 04:43:13;;;;;;;;;;;;;;;5.81;100.00;99098.50;5047616;28;19932;-75
2022/04/19 04:45:40;;;;;;;;;;;;;;;5.89;100.00;99104.91;5044421;28;20262;-75
2022/04/19 04:50:56;;;;;;;;;;;;;;;5.84;100.00;99108.84;5052488;28;19925;-75
2022/04/19 04:53:24;;;;;;;;;;;;;;;5.59;100.00;99108.72;5052611;28;19932;-75
2022/04/19 04:56:07;;;;;;;;;;;;;;;4.80;100.00;99116.16;5052478;28;20383;-75
2022/04/19 04:58:34;;;;;;;;;;;;;;;4.99;100.00;99124.22;5052324;28;19924;-75
2022/04/19 05:01:01;;;;;;;;;;;;;;;5.26;100.00;99122.81;5035858;28;20318;-76
2022/04/19 05:03:28;;;;;;;;;;;;;;;4.72;100.00;99136.66;5052550;28;20340;-74
2022/04/19 05:05:56;;;;;;;;;;;;;;;5.29;100.00;99132.31;5052547;28;19924;-75
2022/04/19 05:08:24;;;;;;;;;;;;;;;5.59;100.00;99133.66;5052454;28;20264;-75
2022/04/19 05:10:52;;;;;;;;;;;;;;;5.71;100.00;99138.06;5052341;28;19925;-74
2022/04/19 05:13:22;;;;;;;;;;;;;;;5.91;100.00;99138.59;5085745;28;20015;-74
2022/04/19 05:15:50;;;;;;;;;;;;;;;6.11;100.00;99134.28;5052230;28;20303;-75
2022/04/19 05:18:18;;;;;;;;;;;;;;;6.20;100.00;99140.25;5052413;28;19925;-75
2022/04/19 05:20:48;;;;;;;;;;;;;;;6.02;100.00;99131.88;5053647;28;19991;-74
2022/04/19 05:23:16;;;;;;;;;;;;;;;5.80;100.00;99146.03;5053672;28;19925;-75
2022/04/19 05:25:43;;;;;;;;;;;;;;;5.75;100.00;99133.34;5052669;28;20307;-75
2022/04/19 05:28:11;;;;;;;;;;;;;;;5.90;100.00;99134.22;5055354;28;19970;-74
2022/04/19 05:30:38;;;;;;;;;;;;;;;6.06;100.00;99138.22;5055916;28;19932;-74
2022/04/19 05:33:06;;;;;;;;;;;;;;;6.14;100.00;99136.28;5055818;28;19925;-75
2022/04/19 05:35:33;;;;;;;;;;;;;;;6.20;100.00;99129.16;5054783;28;19950;-75
2022/04/19 05:38:01;;;;;;;;;;;;;;;6.36;100.00;99129.59;5054801;28;19986;-75
2022/04/19 05:40:30;;;;;;;;;;;;;;;6.62;100.00;99138.34;5054280;28;19925;-75
2022/04/19 05:42:58;;;;;;;;;;;;;;;6.68;100.00;99133.97;5051473;28;19929;-75
2022/04/19 05:45:26;;;;;;;;;;;;;;;6.88;100.00;99142.72;5035989;28;19925;-75
2022/04/19 05:47:54;;;;;;;;;;;;;;;5.86;100.00;99138.97;5039226;28;19931;-75
2022/04/19 05:50:23;;;;;;;;;;;;;;;6.61;100.00;99128.44;5037856;28;19924;-74
2022/04/19 05:52:50;;;;;;;;;;;;;;;6.90;100.00;99132.81;5055749;28;20288;-74
2022/04/19 05:55:18;;;;;;;;;;;;;;;7.53;100.00;99129.13;5054998;28;19979;-77
2022/04/19 05:57:45;;;;;;;;;;;;;;;7.66;100.00;99133.06;5050094;28;19925;-75
2022/04/19 06:00:13;;;;;;;;;;;;;;;8.16;100.00;99137.22;5052031;28;19971;-75
2022/04/19 06:05:30;;;;;;;;;;;;;;;7.60;100.00;99137.47;5068798;28;19940;-75
2022/04/19 06:07:57;;;;;;;;;;;;;;;7.78;100.00;99143.75;5053451;28;20300;-75
2022/04/19 06:10:24;;;;;;;;;;;;;;;7.68;100.00;99141.78;5054819;28;19925;-75
2022/04/19 06:12:53;;;;;;;;;;;;;;;8.26;100.00;99135.59;5055035;28;19929;-75
2022/04/19 06:15:21;;;;;;;;;;;;;;;8.71;100.00;99146.44;5055327;28;19951;-75
2022/04/19 06:17:48;;;;;;;;;;;;;;;9.12;100.00;99149.28;5055254;28;19924;-75
2022/04/19 06:20:34;;;;;;;;;;;;;;;9.28;100.00;99140.38;5056279;28;19968;-75
2022/04/19 06:23:01;;;;;;;;;;;;;;;9.27;100.00;99136.03;5054969;28;19940;-75
2022/04/19 06:25:28;;;;;;;;;;;;;;;9.17;100.00;99134.91;5047042;28;20391;-75
2022/04/19 06:27:58;;;;;;;;;;;;;;;8.57;100.00;99149.31;5054328;28;20372;-76
2022/04/19 06:30:31;;;;;;;;;;;;;;;8.38;100.00;99143.47;5070653;28;19978;-76
2022/04/19 06:32:59;;;;;;;;;;;;;;;8.80;100.00;99155.13;5054785;28;19925;-75
2022/04/19 06:35:26;;;;;;;;;;;;;;;8.92;100.00;99149.06;5071472;28;20301;-76
2022/04/19 06:37:53;;;;;;;;;;;;;;;8.67;100.00;99156.03;5054207;28;20384;-76
2022/04/19 06:40:20;;;;;;;;;;;;;;;9.77;100.00;99156.63;5054414;28;19928;-75
2022/04/19 06:42:48;;;;;;;;;;;;;;;11.46;100.00;99150.13;5054694;28;19925;-76
2022/04/19 06:45:18;;;;;;;;;;;;;;;12.02;100.00;99149.06;5055770;28;19925;-76
2022/04/19 06:47:55;;;;;;;;;;;;;;;12.91;100.00;99136.66;5054478;28;19972;-76
2022/04/19 06:50:24;;;;;;;;;;;;;;;13.96;100.00;99136.72;5054641;28;20447;-76
2022/04/19 06:52:53;;;;;;;;;;;;;;;14.83;100.00;99138.91;5054511;28;20365;-76
2022/04/19 06:55:53;;;;;;;;;;;;;;;16.73;100.00;99124.47;5033056;28;20026;-77
2022/04/19 06:58:20;;;;;;;;;;;;;;;16.15;100.00;99115.81;5016836;28;19936;-80
2022/04/19 07:00:48;;;;;;;;;;;;;;;16.73;100.00;99130.13;5000573;28;19933;-75
2022/04/19 07:03:15;;;;;;;;;;;;;;;18.15;100.00;99117.97;5016848;28;19925;-76
2022/04/19 07:06:01;;;;;;;;;;;;;;;18.29;100.00;99103.19;5033150;28;19926;-76
2022/04/19 07:08:29;;;;;;;;;;;;;;;18.58;100.00;99114.00;5032740;28;19929;-76
2022/04/19 07:10:57;;;;;;;;;;;;;;;19.09;100.00;99104.19;5033049;28;19929;-76
2022/04/19 07:13:44;;;;;;;;;;;;;;;18.52;100.00;99111.03;5032417;28;20383;-76
2022/04/19 07:16:22;;;;;;;;;;;;;;;17.85;100.00;99110.47;5025581;28;20023;-78
2022/04/19 07:18:52;;;;;;;;;;;;;;;17.66;100.00;99123.03;5046363;28;19925;-77
2022/04/19 07:27:01;;;;;;;;;;;;;;;19.89;100.00;99111.88;5049162;28;20031;-78
2022/04/19 07:29:28;;;;;;;;;;;;;;;20.38;100.00;99100.69;5016045;28;19960;-79
2022/04/19 07:31:56;;;;;;;;;;;;;;;20.49;100.00;99113.03;5025410;28;19925;-79
2022/04/19 07:34:53;;;;;;;;;;;;;;;20.37;100.00;99107.66;5058286;28;20288;-79
2022/04/19 07:37:21;;;;;;;;;;;;;;;20.59;100.00;99113.72;5047956;28;20400;-78
2022/04/19 07:39:49;;;;;;;;;;;;;;;19.51;100.00;99104.91;5031807;28;19926;-79
2022/04/19 07:42:16;;;;;;;;;;;;;;;19.54;100.00;99120.94;5044568;28;19978;-78
2022/04/19 07:44:44;;;;;;;;;;;;;;;20.31;100.00;99106.78;5053113;28;19925;-81
2022/04/19 07:47:14;;;;;;;;;;;;;;;21.10;100.00;99108.38;5037094;28;19924;-80
2022/04/19 07:49:42;;;;;;;;;;;;;;;20.40;100.00;99113.13;5033021;28;19925;-79
2022/04/19 07:52:10;;;;;;;;;;;;;;;18.49;100.00;99117.66;5076767;28;19975;-80
2022/04/19 07:54:37;;;;;;;;;;;;;;;18.43;100.00;99124.41;5046953;28;19971;-79
2022/04/19 07:57:05;;;;;;;;;;;;;;;18.53;100.00;99118.25;5049688;28;19931;-80
2022/04/19 07:59:33;;;;;;;;;;;;;;;19.61;100.00;99116.97;5050893;28;19932;-79
2022/04/19 08:02:01;;;;;;;;;;;;;;;20.43;100.00;99119.88;5080224;28;20295;-79
2022/04/19 08:04:28;;;;;;;;;;;;;;;20.86;100.00;99119.06;5068463;28;19932;-79
2022/04/19 08:06:59;;;;;;;;;;;;;;;21.27;100.00;99109.41;5070402;28;19973;-79
2022/04/19 08:09:27;;;;;;;;;;;;;;;21.13;100.00;99110.22;5085787;28;19935;-79
2022/04/19 08:11:53;;;;;;;;;;;;;;;20.07;100.00;99114.53;5052546;28;20413;-79
2022/04/19 08:14:21;;;;;;;;;;;;;;;18.43;100.00;99125.22;5070011;28;19928;-80
2022/04/19 08:16:49;;;;;;;;;;;;;;;17.08;100.00;99140.00;5085827;28;19935;-79
2022/04/19 08:19:16;;;;;;;;;;;;;;;17.12;100.00;99142.66;5085575;28;19932;-78
2022/04/19 08:21:45;;;;;;;;;;;;;;;17.15;100.00;99150.97;5069639;28;19924;-79
2022/04/19 08:24:13;;;;;;;;;;;;;;;17.06;100.00;99156.59;5068961;28;20558;-79
2022/04/19 08:26:40;;;;;;;;;;;;;;;16.66;100.00;99146.53;5068920;28;20126;-78
2022/04/19 08:29:07;;;;;;;;;;;;;;;16.98;100.00;99151.72;5070872;28;20031;-79
2022/04/19 08:31:35;;;;;;;;;;;;;;;16.94;100.00;99149.03;5085491;28;19928;-78
2022/04/19 08:34:02;;;;;;;;;;;;;;;16.82;100.00;99146.28;5068502;28;19924;-78
2022/04/19 08:36:30;;;;;;;;;;;;;;;16.35;100.00;99148.50;5052541;28;20345;-78
2022/04/19 08:38:57;;;;;;;;;;;;;;;16.11;100.00;99148.97;5069584;28;20062;-86
2022/04/19 08:41:26;;;;;;;;;;;;;;;15.11;100.00;99146.47;5053082;28;19970;-83
2022/04/19 08:43:55;;;;;;;;;;;;;;;14.86;100.00;99152.06;5053567;28;19978;-82
2022/04/19 08:46:22;;;;;;;;;;;;;;;15.74;100.00;99154.78;5069895;28;19924;-82
2022/04/19 08:48:50;;;;;;;;;;;;;;;16.09;100.00;99153.50;5052711;28;19924;-83
2022/04/19 08:51:19;;;;;;;;;;;;;;;15.55;100.00;99147.41;5103847;28;19928;-85
2022/04/19 08:59:26;;;;;;;;;;;;;;;14.99;100.00;99150.06;5069052;28;19924;-84
2022/04/19 09:01:53;;;;;;;;;;;;;;;15.08;100.00;99144.53;5091295;28;20295;-83
2022/04/19 09:04:22;;;;;;;;;;;;;;;15.26;100.00;99146.75;5090869;28;19974;-83
2022/04/19 09:06:51;;;;;;;;;;;;;;;15.62;100.00;99149.97;5074999;28;19924;-83
2022/04/19 09:09:24;;;;;;;;;;;;;;;17.04;100.00;99155.50;5073927;28;19925;-83
2022/04/19 09:11:52;;;;;;;;;;;;;;;16.40;100.00;99136.66;5057791;28;19924;-82
2022/04/19 09:14:22;;;;;;;;;;;;;;;17.36;100.00;99138.81;5073717;28;19932;-83
2022/04/19 09:17:01;;;;;;;;;;;;;;;17.95;100.00;99135.44;5073576;28;20350;-82
2022/04/19 09:19:29;;;;;;;;;;;;;;;16.73;100.00;99135.78;5074635;28;20367;-83
2022/04/19 09:21:56;;;;;;;;;;;;;;;16.53;100.00;99143.00;5073851;28;19958;-82
2022/04/19 09:24:25;;;;;;;;;;;;;;;16.28;100.00;99139.06;5075077;28;19928;-82
2022/04/19 09:26:53;;;;;;;;;;;;;;;16.08;100.00;99141.44;5074131;28;20019;-84
2022/04/19 09:29:22;;;;;;;;;;;;;;;16.09;100.00;99134.56;5073418;28;19931;-82
2022/04/19 09:31:51;;;;;;;;;;;;;;;15.94;100.00;99141.97;5068732;28;19924;-82
2022/04/19 09:34:33;;;;;;;;;;;;;;;16.00;100.00;99145.78;5073163;28;19970;-82
2022/04/19 09:37:10;;;;;;;;;;;;;;;15.76;100.00;99139.00;5073527;28;20025;-82
2022/04/19 09:39:38;;;;;;;;;;;;;;;16.47;100.00;99139.22;5107527;28;19928;-82
2022/04/19 09:42:10;;;;;;;;;;;;;;;16.30;100.00;99135.03;5073040;28;19940;-83
2022/04/19 09:44:38;;;;;;;;;;;;;;;15.93;100.00;99139.63;5056480;28;19924;-83
2022/04/19 09:47:06;;;;;;;;;;;;;;;16.06;100.00;99135.50;5073057;28;19932;-83
2022/04/19 09:49:47;;;;;;;;;;;;;;;15.94;100.00;99136.34;5056112;28;19931;-83
2022/04/19 09:52:36;;;;;;;;;;;;;;;15.62;100.00;99138.69;5073015;28;20077;-83
2022/04/19 09:55:06;;;;;;;;;;;;;;;16.36;100.00;99138.81;5073462;28;19924;-83
2022/04/19 09:57:36;;;;;;;;;;;;;;;15.76;100.00;99141.81;5056419;28;19951;-83
2022/04/19 10:00:05;;;;;;;;;;;;;;;15.25;100.00;99131.88;5073995;28;19982;-83
2022/04/19 10:08:11;;;;;;;;;;;;;;;15.94;100.00;99129.91;5056572;28;19928;-84
2022/04/19 10:10:38;;;;;;;;;;;;;;;15.72;100.00;99132.69;5059710;28;19925;-82
2022/04/19 10:13:06;;;;;;;;;;;;;;;15.32;100.00;99137.31;5052069;28;19924;-81
2022/04/19 10:15:34;;;;;;;;;;;;;;;15.02;100.00;99134.31;5035943;28;19992;-82
2022/04/19 10:18:05;;;;;;;;;;;;;;;15.42;100.00;99149.47;5085080;28;19925;-81
2022/04/19 10:20:34;;;;;;;;;;;;;;;15.48;100.00;99137.16;5084953;28;19925;-78
2022/04/19 10:23:06;;;;;;;;;;;;;;;15.72;100.00;99141.16;5051556;28;19925;-78
2022/04/19 10:25:40;;;;;;;;;;;;;;;15.65;100.00;99152.66;5052511;28;20305;-79
2022/04/19 10:28:08;;;;;;;;;;;;;;;15.85;100.00;99143.91;5051859;28;19928;-78
2022/04/19 10:30:39;;;;;;;;;;;;;;;15.90;100.00;99149.75;5051671;28;20015;-79
2022/04/19 10:33:40;;;;;;;;;;;;;;;15.90;100.00;99141.28;5051171;28;19925;-78
2022/04/19 10:36:10;;;;;;;;;;;;;;;15.83;100.00;99158.47;5050528;28;19925;-77
2022/04/19 10:38:38;;;;;;;;;;;;;;;15.69;100.00;99158.97;5066564;28;20031;-77
2022/04/19 10:41:05;;;;;;;;;;;;;;;15.47;100.00;99152.50;5083717;28;19925;-77
2022/04/19 10:43:32;;;;;;;;;;;;;;;15.49;100.00;99155.66;5051939;28;19933;-76
2022/04/19 10:46:18;;;;;;;;;;;;;;;16.09;100.00;99165.56;5050798;28;19929;-77
2022/04/19 10:49:04;;;;;;;;;;;;;;;15.38;100.00;99154.44;5055381;28;19924;-77
2022/04/19 10:51:31;;;;;;;;;;;;;;;16.04;100.00;99154.88;5052046;28;19978;-75
2022/04/19 10:53:58;;;;;;;;;;;;;;;15.91;100.00;99154.16;5053047;28;20296;-76
2022/04/19 10:56:25;;;;;;;;;;;;;;;15.55;100.00;99161.50;5053139;28;20039;-75
2022/04/19 10:58:53;;;;;;;;;;;;;;;15.26;100.00;99152.41;5071747;28;19932;-74
2022/04/19 11:01:28;;;;;;;;;;;;;;;15.16;100.00;99165.56;5071503;28;19931;-75
2022/04/19 11:03:56;;;;;;;;;;;;;;;15.82;100.00;99161.75;5071716;28;19925;-75
2022/04/19 11:06:40;;;;;;;;;;;;;;;16.21;100.00;99159.09;5071370;28;19936;-75
2022/04/19 11:09:07;;;;;;;;;;;;;;;16.10;100.00;99155.06;5071290;28;19929;-75
2022/04/19 11:11:50;;;;;;;;;;;;;;;16.15;100.00;99158.09;5071331;28;20249;-75
2022/04/19 11:14:23;;;;;;;;;;;;;;;16.50;100.00;99158.03;5053823;28;20264;-75
2022/04/19 11:16:51;;;;;;;;;;;;;;;15.73;100.00;99158.84;5071136;28;20352;-76
2022/04/19 11:19:23;;;;;;;;;;;;;;;15.76;100.00;99158.72;5057612;28;19940;-76
2022/04/19 11:21:54;;;;;;;;;;;;;;;16.15;100.00;99157.31;5051430;28;20665;-76
2022/04/19 11:24:44;;;;;;;;;;;;;;;16.44;100.00;99157.84;5049760;28;19928;-74
2022/04/19 11:27:11;;;;;;;;;;;;;;;16.50;100.00;99160.84;5050527;28;19979;-74
2022/04/19 11:29:46;;;;;;;;;;;;;;;16.62;100.00;99157.97;5049439;28;19925;-73
2022/04/19 11:32:19;;;;;;;;;;;;;;;16.65;100.00;99144.94;5046467;28;19925;-74
2022/04/19 11:34:56;;;;;;;;;;;;;;;16.36;100.00;99155.75;5047744;28;20003;-76
2022/04/19 11:37:23;;;;;;;;;;;;;;;16.99;100.00;99156.09;5066295;28;19928;-76
2022/04/19 11:48:14;;;;;;;;;;;;;;;16.60;100.00;99154.81;5054566;28;20015;-75
2022/04/19 11:50:41;;;;;;;;;;;;;;;16.84;100.00;99157.91;5070072;28;19932;-77
2022/04/19 11:53:15;;;;;;;;;;;;;;;16.48;100.00;99158.50;5054682;28;19925;-76
2022/04/19 11:55:50;;;;;;;;;;;;;;;16.41;100.00;99158.75;5054510;28;19932;-79
2022/04/19 11:58:20;;;;;;;;;;;;;;;16.21;100.00;99170.38;5054317;28;19932;-79
2022/04/19 12:00:58;;;;;;;;;;;;;;;15.78;100.00;99156.22;5054579;28;19925;-79
2022/04/19 12:03:27;;;;;;;;;;;;;;;15.85;100.00;99172.91;5053424;28;20016;-80
2022/04/19 12:06:03;;;;;;;;;;;;;;;15.89;100.00;99170.72;5069951;28;19964;-79
2022/04/19 12:08:37;;;;;;;;;;;;;;;16.50;100.00;99169.31;5053454;28;19932;-79
2022/04/19 12:11:17;;;;;;;;;;;;;;;16.07;100.00;99161.63;5069762;28;19950;-80
2022/04/19 12:13:46;;;;;;;;;;;;;;;16.21;100.00;99161.91;5069698;28;19929;-79
2022/04/19 12:16:32;;;;;;;;;;;;;;;16.36;100.00;99164.19;5020184;28;19928;-86
2022/04/19 12:19:02;;;;;;;;;;;;;;;17.37;100.00;99162.19;5069994;28;19925;-90
2022/04/19 12:21:34;;;;;;;;;;;;;;;16.98;100.00;99154.53;5053291;28;19929;-91
2022/04/19 12:24:02;;;;;;;;;;;;;;;17.29;100.00;99163.72;5037270;28;19924;-90
2022/04/19 12:26:34;;;;;;;;;;;;;;;17.26;100.00;99161.84;5053627;28;19967;-92
2022/04/19 12:29:13;;;;;;;;;;;;;;;17.80;100.00;99161.97;5037374;28;19929;-91
2022/04/19 12:31:41;;;;;;;;;;;;;;;17.95;100.00;99163.72;5020970;28;19928;-92
2022/04/19 12:34:12;;;;;;;;;;;;;;;18.20;100.00;99158.97;5037060;28;19925;-90
2022/04/19 12:36:46;;;;;;;;;;;;;;;17.94;100.00;99161.34;5037214;28;19925;-91
2022/04/19 12:39:22;;;;;;;;;;;;;;;17.92;100.00;99163.84;5053538;28;19925;-91
2022/04/19 12:41:54;;;;;;;;;;;;;;;17.67;100.00;99158.50;5053467;28;19929;-90
2022/04/19 12:44:21;;;;;;;;;;;;;;;17.97;100.00;99166.06;5021537;28;19970;-90
2022/04/19 12:46:54;;;;;;;;;;;;;;;16.63;100.00;99158.75;5037159;28;22802;-91
2022/04/19 12:49:26;;;;;;;;;;;;;;;15.99;100.00;99161.09;5053265;28;19925;-89
2022/04/19 12:52:02;;;;;;;;;;;;;;;16.61;100.00;99169.69;5036894;28;19936;-82
2022/04/19 12:54:29;;;;;;;;;;;;;;;15.71;100.00;99167.75;5069248;28;20055;-83
2022/04/19 12:56:57;;;;;;;;;;;;;;;15.53;100.00;99169.59;5052526;28;19925;-82
2022/04/19 12:59:25;;;;;;;;;;;;;;;15.28;100.00;99164.75;5053545;28;19924;-85
2022/04/19 13:01:51;;;;;;;;;;;;;;;14.83;100.00;99171.91;5069075;28;19924;-83
2022/04/19 13:04:19;;;;;;;;;;;;;;;15.16;100.00;99182.47;5085379;28;19925;-82
2022/04/19 13:12:18;;;;;;;;;;;;;;;15.24;100.00;99178.19;5052848;28;19925;-81
2022/04/19 13:14:46;;;;;;;;;;;;;;;15.18;100.00;99182.81;5052594;28;19932;-81
2022/04/19 13:17:17;;;;;;;;;;;;;;;16.09;100.00;99179.66;5053639;28;19931;-82
2022/04/19 13:19:44;;;;;;;;;;;;;;;15.66;100.00;99179.59;5052146;28;20363;-83
2022/04/19 13:22:12;;;;;;;;;;;;;;;16.21;100.00;99172.38;5035466;28;19925;-83
2022/04/19 13:24:39;;;;;;;;;;;;;;;16.71;100.00;99188.25;5052213;28;20032;-82
2022/04/19 13:27:07;;;;;;;;;;;;;;;16.52;100.00;99180.94;5051879;28;19927;-83
2022/04/19 13:29:35;;;;;;;;;;;;;;;16.53;100.00;99179.69;5068701;28;20024;-82
2022/04/19 13:32:02;;;;;;;;;;;;;;;16.22;100.00;99183.19;5052233;28;19964;-82
2022/04/19 13:34:30;;;;;;;;;;;;;;;15.53;100.00;99195.72;5052274;28;19971;-82
2022/04/19 13:37:00;;;;;;;;;;;;;;;14.48;100.00;99195.47;5052170;28;19925;-81
2022/04/19 13:39:27;;;;;;;;;;;;;;;14.38;100.00;99211.41;5053830;28;20074;-81